LYBE/BEG METAR and TAF weather

Enter ICAO airport designator
Station Type Date Time Source
LYBE METAR 2020/09/26 10:30 UTC NOAA

LYBE 261030Z 34003KT 300V360 9999 -TSRA SCT030CB BKN040 13/12 Q0997 BECMG NSW BKN040


Station Type Date Time Source
LYBE Decoded METAR 2020/09/26 10:30 UTC NOAA

Beograd / Surcin, Serbia and Montenegro (LYBE) 44-49N 020-17E 99M
Sep 26, 2020 - 06:30 AM EDT / 2020.09.26 1030 UTC
Wind: from the NNW (340 degrees) at 3 MPH (3 KT) (direction variable):0
Visibility: greater than 7 mile(s):0
Sky conditions: mostly cloudy
Weather: light rain with thunder; Cumulonimbus clouds observed
Temperature: 55 F (13 C)
Dew Point: 53 F (12 C)
Relative Humidity: 93%
Pressure (altimeter): 29.44 in. Hg (0997 hPa)
ob: LYBE 261030Z 34003KT 300V360 9999 -TSRA SCT030CB BKN040 13/12 Q0997 BECMG NSW BKN040
cycle: 10

Station Type Date Time Source
LYBE TAF 2020/09/26 10:08 UTC NOAA

TAF
AMD LYBE 261000Z 2610/2712 26006KT 9999 SCT040 TX15/2613Z TN10/2704Z
TEMPO 2610/2614 26015G25KT 3000 TSRA SCT033CB BKN040

Example: see airport list